Time;durP1;ratioP1;P1;durP2;ratioP2;P2;SDS_P1;SDS_P2;PMS_P1;PMS_P2;Temp;Humidity;BMP_temperature;BMP_pressure;BME280_temperature;BME280_humidity;BME280_pressure;Samples;Min_cycle;Max_cycle;Signal;HPM_P1;HPM_P2
2024/03/15 00:02:13;;;;;;;10.30;5.00;;;14.30;99.90;;;;;;5012457;28;20427;-71
2024/03/15 00:04:39;;;;;;;5.87;4.80;;;14.20;99.90;;;;;;5008546;28;20769;-70
2024/03/15 00:07:05;;;;;;;8.33;4.80;;;14.20;99.90;;;;;;5010479;28;20428;-70
2024/03/15 00:09:31;;;;;;;4.57;4.17;;;14.20;99.90;;;;;;5011498;28;20565;-70
2024/03/15 00:11:57;;;;;;;6.63;4.70;;;14.20;99.90;;;;;;5011548;28;20439;-70
2024/03/15 00:14:23;;;;;;;6.70;4.77;;;14.30;99.90;;;;;;5026737;28;20475;-70
2024/03/15 00:16:51;;;;;;;8.13;5.30;;;14.30;99.90;;;;;;5015803;28;20643;-70
2024/03/15 00:19:17;;;;;;;6.50;4.83;;;14.30;99.90;;;;;;5013714;28;20447;-70
2024/03/15 00:21:43;;;;;;;13.30;4.60;;;14.20;99.90;;;;;;5011301;28;20428;-70
2024/03/15 00:24:09;;;;;;;5.10;4.53;;;14.20;99.90;;;;;;5006997;28;21084;-70
2024/03/15 00:26:37;;;;;;;5.90;4.60;;;14.30;99.90;;;;;;5008555;28;20280;-70
2024/03/15 00:29:04;;;;;;;5.40;4.50;;;14.30;99.90;;;;;;5007418;28;20190;-71
2024/03/15 00:31:33;;;;;;;5.70;4.57;;;14.30;99.90;;;;;;5013599;28;20534;-70
2024/03/15 00:33:59;;;;;;;6.33;4.50;;;14.20;99.90;;;;;;5007433;28;20507;-71
2024/03/15 00:36:24;;;;;;;6.80;5.07;;;14.20;99.90;;;;;;5012082;28;20506;-70
2024/03/15 00:38:53;;;;;;;5.83;4.53;;;14.20;99.90;;;;;;5009650;28;20540;-70
2024/03/15 00:41:19;;;;;;;9.63;4.93;;;14.20;99.90;;;;;;5013907;28;20181;-70
2024/03/15 00:43:47;;;;;;;7.53;5.40;;;14.20;99.90;;;;;;5008854;28;20990;-70
2024/03/15 00:46:17;;;;;;;5.97;4.80;;;14.30;99.90;;;;;;5016489;28;20188;-70
2024/03/15 00:48:43;;;;;;;6.33;4.90;;;14.20;99.90;;;;;;5011697;28;20436;-71
2024/03/15 00:51:09;;;;;;;5.20;4.70;;;14.30;99.90;;;;;;5006643;28;20667;-71
2024/03/15 00:53:39;;;;;;;8.70;4.80;;;14.30;99.90;;;;;;5005892;28;20474;-70
2024/03/15 00:56:05;;;;;;;7.50;5.00;;;14.20;99.90;;;;;;5006991;28;20179;-71
2024/03/15 00:58:31;;;;;;;7.40;4.90;;;14.20;99.90;;;;;;5013981;28;20513;-70
2024/03/15 01:00:57;;;;;;;5.70;4.80;;;14.20;99.90;;;;;;5014216;28;20976;-70
2024/03/15 01:03:25;;;;;;;5.97;4.83;;;14.20;99.90;;;;;;5006983;28;20272;-71
2024/03/15 01:05:51;;;;;;;8.80;5.37;;;14.20;99.90;;;;;;5008606;28;20475;-70
2024/03/15 01:08:18;;;;;;;7.70;5.73;;;14.20;99.90;;;;;;5008170;28;21150;-70
2024/03/15 01:10:47;;;;;;;6.30;4.63;;;14.20;99.90;;;;;;5008817;28;20423;-70
2024/03/15 01:13:13;;;;;;;7.20;5.20;;;14.20;99.90;;;;;;5006436;28;20483;-70
2024/03/15 01:15:39;;;;;;;7.93;5.50;;;14.20;99.90;;;;;;5013740;28;20448;-71
2024/03/15 01:18:05;;;;;;;5.97;5.37;;;14.20;99.90;;;;;;5009477;28;20439;-70
2024/03/15 01:20:32;;;;;;;6.33;4.87;;;14.10;99.90;;;;;;5011314;28;20515;-70
2024/03/15 01:22:58;;;;;;;6.70;5.60;;;14.10;99.90;;;;;;5008886;28;20180;-70
2024/03/15 01:25:23;;;;;;;7.20;5.10;;;14.00;99.90;;;;;;5004199;28;20997;-70
2024/03/15 01:27:49;;;;;;;6.33;5.73;;;14.00;99.90;;;;;;5010609;28;20602;-70
2024/03/15 01:30:15;;;;;;;5.70;5.07;;;14.00;99.90;;;;;;5008871;28;20197;-70
2024/03/15 01:32:40;;;;;;;7.30;5.50;;;13.90;99.90;;;;;;5021654;28;20220;-70
2024/03/15 01:35:07;;;;;;;11.53;5.37;;;13.90;99.90;;;;;;5006613;28;20268;-70
2024/03/15 01:37:32;;;;;;;6.70;5.97;;;13.90;99.90;;;;;;5014075;28;20259;-70
2024/03/15 01:39:59;;;;;;;6.30;5.60;;;13.90;99.90;;;;;;5013136;28;20987;-70
2024/03/15 01:42:25;;;;;;;9.57;5.87;;;13.90;99.90;;;;;;5014212;28;20184;-70
2024/03/15 01:44:55;;;;;;;7.70;5.40;;;13.90;99.90;;;;;;5007630;28;20949;-70
2024/03/15 01:47:25;;;;;;;9.67;5.60;;;13.90;99.90;;;;;;5013267;28;20201;-70
2024/03/15 01:49:53;;;;;;;7.53;5.37;;;13.90;99.90;;;;;;5010198;28;20434;-70
2024/03/15 01:52:20;;;;;;;9.40;5.30;;;13.90;99.90;;;;;;5008591;28;20444;-70
2024/03/15 01:54:46;;;;;;;6.27;5.47;;;13.90;99.90;;;;;;5006325;28;20574;-70
2024/03/15 01:57:13;;;;;;;8.60;5.80;;;13.90;99.90;;;;;;5007410;28;20531;-71
2024/03/15 01:59:39;;;;;;;7.97;5.60;;;13.90;99.90;;;;;;5009077;28;20948;-70
2024/03/15 02:02:05;;;;;;;6.60;5.40;;;13.90;99.90;;;;;;5004242;28;20517;-70
2024/03/15 02:04:31;;;;;;;6.60;5.03;;;13.90;99.90;;;;;;5003696;28;20270;-71
2024/03/15 02:06:57;;;;;;;7.00;4.87;;;13.80;99.90;;;;;;5005753;28;20797;-70
2024/03/15 02:09:24;;;;;;;9.23;5.30;;;13.80;99.90;;;;;;5003791;28;20189;-70
2024/03/15 02:11:51;;;;;;;6.60;5.33;;;13.80;99.90;;;;;;5009320;28;20438;-70
2024/03/15 02:14:16;;;;;;;5.13;4.40;;;13.80;99.90;;;;;;5003884;28;20480;-70
2024/03/15 02:16:42;;;;;;;5.10;4.57;;;13.80;99.90;;;;;;5012423;28;20431;-70
2024/03/15 02:19:09;;;;;;;6.40;5.50;;;13.80;99.90;;;;;;5005258;28;20243;-70
2024/03/15 02:21:35;;;;;;;6.77;4.83;;;13.80;99.90;;;;;;5011116;28;20241;-70
2024/03/15 02:24:01;;;;;;;10.83;5.00;;;13.80;99.90;;;;;;5005397;28;20463;-70
2024/03/15 02:26:27;;;;;;;6.90;5.17;;;13.80;99.90;;;;;;5006996;28;20942;-69
2024/03/15 02:28:53;;;;;;;6.40;4.90;;;13.70;99.90;;;;;;5008887;28;20446;-69
2024/03/15 02:31:21;;;;;;;7.67;4.70;;;13.80;99.90;;;;;;5009294;28;20188;-69
2024/03/15 02:33:47;;;;;;;8.13;5.43;;;13.70;99.90;;;;;;5011907;28;20475;-69
2024/03/15 02:36:15;;;;;;;10.20;4.87;;;13.80;99.90;;;;;;5005458;28;20467;-69
2024/03/15 02:38:43;;;;;;;6.57;4.60;;;13.80;99.90;;;;;;5010951;28;20437;-69
2024/03/15 02:41:09;;;;;;;10.67;5.57;;;13.80;99.90;;;;;;5023612;28;20432;-69
2024/03/15 02:43:36;;;;;;;7.33;5.20;;;13.80;99.90;;;;;;5007448;28;20436;-69
2024/03/15 02:46:01;;;;;;;6.00;4.70;;;13.80;99.90;;;;;;5011373;28;20451;-70
2024/03/15 02:48:27;;;;;;;5.30;4.40;;;13.70;99.90;;;;;;5007266;28;20510;-69
2024/03/15 02:50:53;;;;;;;4.60;4.03;;;13.70;99.90;;;;;;5014983;28;20201;-69
2024/03/15 02:53:19;;;;;;;5.57;4.77;;;13.80;99.90;;;;;;5011039;28;20220;-69
2024/03/15 02:55:44;;;;;;;4.50;4.03;;;13.80;99.90;;;;;;5007151;28;20283;-69
2024/03/15 02:58:11;;;;;;;5.33;4.47;;;13.80;99.90;;;;;;5015712;28;20522;-70
2024/03/15 03:00:37;;;;;;;4.90;3.93;;;13.80;99.90;;;;;;5019275;28;20177;-70
2024/03/15 03:03:05;;;;;;;6.23;4.53;;;13.80;99.90;;;;;;5019363;28;20670;-69
2024/03/15 03:05:31;;;;;;;5.40;4.43;;;13.70;99.90;;;;;;5010072;28;20551;-69
2024/03/15 03:07:56;;;;;;;6.17;4.20;;;13.80;99.90;;;;;;5009861;28;20466;-70
2024/03/15 03:10:22;;;;;;;5.50;3.90;;;13.80;99.90;;;;;;5011248;28;20189;-69
2024/03/15 03:12:48;;;;;;;7.90;3.97;;;13.70;99.90;;;;;;5012520;28;20192;-69
2024/03/15 03:15:14;;;;;;;8.23;4.23;;;13.70;99.90;;;;;;5010199;28;20943;-70
2024/03/15 03:17:40;;;;;;;6.87;4.10;;;13.70;99.90;;;;;;5016010;28;20685;-69
2024/03/15 03:20:18;;;;;;;6.17;4.60;;;13.70;99.90;;;;;;5012983;28;20459;-69
2024/03/15 03:22:44;;;;;;;4.90;3.80;;;13.70;99.90;;;;;;5012328;28;20860;-69
2024/03/15 03:25:10;;;;;;;5.07;3.27;;;13.70;99.90;;;;;;5012023;28;20479;-69
2024/03/15 03:27:35;;;;;;;5.77;3.40;;;13.70;99.90;;;;;;5013017;28;20450;-68
2024/03/15 03:30:02;;;;;;;5.33;3.50;;;13.70;99.90;;;;;;5012546;28;20194;-69
2024/03/15 03:32:27;;;;;;;4.90;3.57;;;13.70;99.90;;;;;;5008336;28;20189;-68
2024/03/15 03:34:53;;;;;;;7.77;3.70;;;13.70;99.90;;;;;;5012879;28;20480;-69
2024/03/15 03:37:19;;;;;;;4.73;3.83;;;13.60;99.90;;;;;;5007468;28;20284;-70
2024/03/15 03:39:46;;;;;;;6.10;3.90;;;13.60;99.90;;;;;;5010068;28;20192;-70
2024/03/15 03:42:11;;;;;;;9.57;3.70;;;13.70;99.90;;;;;;5014193;28;20518;-69
2024/03/15 03:44:38;;;;;;;6.23;3.90;;;13.70;99.90;;;;;;5016161;28;20518;-70
2024/03/15 03:47:03;;;;;;;5.17;3.50;;;13.70;99.90;;;;;;5015718;28;20231;-70
2024/03/15 03:49:29;;;;;;;4.40;3.40;;;13.70;99.90;;;;;;5006640;28;20523;-70
2024/03/15 03:51:57;;;;;;;4.93;3.47;;;13.70;99.90;;;;;;5011307;28;20303;-69
2024/03/15 03:54:24;;;;;;;5.17;3.63;;;13.70;99.90;;;;;;5009423;28;20705;-70
2024/03/15 03:56:50;;;;;;;5.90;2.83;;;13.70;99.90;;;;;;5006873;28;20440;-70
2024/03/15 03:59:16;;;;;;;5.07;3.37;;;13.70;99.90;;;;;;5006661;28;20439;-71
2024/03/15 04:01:41;;;;;;;6.40;3.40;;;13.70;99.90;;;;;;5011602;28;20852;-70
2024/03/15 04:04:07;;;;;;;4.20;2.80;;;13.70;99.90;;;;;;5011035;28;20213;-70
2024/03/15 04:06:34;;;;;;;5.70;3.27;;;13.70;99.90;;;;;;5011123;28;20200;-70
2024/03/15 04:09:00;;;;;;;4.33;3.20;;;13.60;99.90;;;;;;5004914;28;20284;-70
2024/03/15 04:11:26;;;;;;;4.20;3.30;;;13.60;99.90;;;;;;5012579;28;20554;-70
2024/03/15 04:13:52;;;;;;;4.60;3.23;;;13.50;99.90;;;;;;5008466;28;20220;-70
2024/03/15 04:16:18;;;;;;;5.33;3.50;;;13.60;99.90;;;;;;5011649;28;20197;-70
2024/03/15 04:18:44;;;;;;;4.33;3.33;;;13.60;99.90;;;;;;5012137;28;20791;-71
2024/03/15 04:21:13;;;;;;;3.63;3.13;;;13.60;99.90;;;;;;5013825;28;20424;-70
2024/03/15 04:23:39;;;;;;;6.43;3.83;;;13.70;99.90;;;;;;5009980;28;20567;-70
2024/03/15 04:26:05;;;;;;;4.47;3.43;;;13.70;99.90;;;;;;5011663;28;20502;-70
2024/03/15 04:28:32;;;;;;;4.90;3.13;;;13.60;99.90;;;;;;5013000;28;20223;-70
2024/03/15 04:30:57;;;;;;;3.87;3.47;;;13.70;99.90;;;;;;5010593;28;20447;-71
2024/03/15 04:33:23;;;;;;;4.20;2.93;;;13.70;99.90;;;;;;5009093;28;20478;-70
2024/03/15 04:35:50;;;;;;;3.50;2.90;;;13.60;99.90;;;;;;5009663;28;20686;-70
2024/03/15 04:38:16;;;;;;;4.17;3.53;;;13.70;99.90;;;;;;5008445;28;20215;-70
2024/03/15 04:40:42;;;;;;;6.30;3.33;;;13.70;99.90;;;;;;5008957;28;20431;-70
2024/03/15 04:43:07;;;;;;;4.33;3.13;;;13.70;99.90;;;;;;5008382;28;20800;-70
2024/03/15 04:45:33;;;;;;;5.20;3.37;;;13.70;99.90;;;;;;5012157;28;20204;-70
2024/03/15 04:48:00;;;;;;;4.07;2.87;;;13.60;99.90;;;;;;5014510;28;20180;-70
2024/03/15 04:50:26;;;;;;;4.70;3.30;;;13.60;99.90;;;;;;5010687;28;20272;-70
2024/03/15 04:52:52;;;;;;;6.90;3.20;;;13.60;99.90;;;;;;5008571;28;20415;-70
2024/03/15 04:55:20;;;;;;;4.93;3.17;;;13.70;99.90;;;;;;5012198;28;21007;-70
2024/03/15 04:57:47;;;;;;;5.20;2.97;;;13.70;99.90;;;;;;5011869;28;20676;-70
2024/03/15 05:00:19;;;;;;;3.90;3.30;;;13.60;99.90;;;;;;5007072;28;20431;-70
2024/03/15 05:02:46;;;;;;;5.50;3.37;;;13.60;99.90;;;;;;5007965;28;20504;-71
2024/03/15 05:05:13;;;;;;;6.53;3.30;;;13.60;99.90;;;;;;5008498;28;20451;-70
2024/03/15 05:07:39;;;;;;;3.87;2.60;;;13.60;99.90;;;;;;5016722;28;20439;-70
2024/03/15 05:10:06;;;;;;;4.13;2.87;;;13.50;99.90;;;;;;5013842;28;20450;-71
2024/03/15 05:12:32;;;;;;;5.13;3.40;;;13.60;99.90;;;;;;5006270;28;20173;-70
2024/03/15 05:14:57;;;;;;;4.00;3.07;;;13.60;99.90;;;;;;5011117;28;20463;-70
2024/03/15 05:17:23;;;;;;;4.97;3.10;;;13.60;99.90;;;;;;5016261;28;20199;-70
2024/03/15 05:19:49;;;;;;;9.00;3.27;;;13.60;99.90;;;;;;5004882;28;20956;-70
2024/03/15 05:22:14;;;;;;;6.37;3.40;;;13.60;99.90;;;;;;5009381;28;20172;-70
2024/03/15 05:24:40;;;;;;;4.67;2.97;;;13.70;99.90;;;;;;5004031;28;20236;-70
2024/03/15 05:27:05;;;;;;;4.10;2.90;;;13.70;99.90;;;;;;5009585;28;20181;-70
2024/03/15 05:29:31;;;;;;;3.83;2.80;;;13.60;99.90;;;;;;5010995;28;20600;-70
2024/03/15 05:31:57;;;;;;;6.30;3.10;;;13.60;99.90;;;;;;5017427;28;20562;-70
2024/03/15 05:34:23;;;;;;;4.93;3.00;;;13.50;99.90;;;;;;5006960;28;20212;-71
2024/03/15 05:36:48;;;;;;;4.57;3.00;;;13.50;99.90;;;;;;5011233;28;20429;-70
2024/03/15 05:39:14;;;;;;;3.20;2.83;;;13.50;99.90;;;;;;5010779;28;20420;-70
2024/03/15 05:41:40;;;;;;;3.50;2.60;;;13.60;99.90;;;;;;5012791;28;20968;-70
2024/03/15 05:44:05;;;;;;;3.87;2.80;;;13.60;99.90;;;;;;5006383;28;20212;-71
2024/03/15 05:46:34;;;;;;;4.33;2.47;;;13.60;99.90;;;;;;5010215;28;20200;-70
2024/03/15 05:49:00;;;;;;;5.07;2.73;;;13.60;99.90;;;;;;5010898;28;20184;-69
2024/03/15 05:51:26;;;;;;;3.47;2.80;;;13.60;99.90;;;;;;5012342;28;20436;-70
2024/03/15 05:53:51;;;;;;;4.57;2.87;;;13.60;99.90;;;;;;5008562;28;20498;-69
2024/03/15 05:56:18;;;;;;;3.80;2.97;;;13.60;99.90;;;;;;5007937;28;20432;-69
2024/03/15 05:58:44;;;;;;;3.70;2.87;;;13.60;99.90;;;;;;5010743;28;20181;-69
2024/03/15 06:01:11;;;;;;;3.60;2.77;;;13.60;99.90;;;;;;5004568;28;20614;-69
2024/03/15 06:03:37;;;;;;;6.10;2.77;;;13.60;99.90;;;;;;5006342;28;20180;-69
2024/03/15 06:06:08;;;;;;;3.93;3.20;;;13.60;99.90;;;;;;5003594;28;20447;-69
2024/03/15 06:08:34;;;;;;;6.50;3.37;;;13.60;99.90;;;;;;5011730;28;20860;-69
2024/03/15 06:11:00;;;;;;;5.30;3.30;;;13.60;99.90;;;;;;5008785;28;20428;-69
2024/03/15 06:13:25;;;;;;;3.90;2.60;;;13.60;99.90;;;;;;5011951;28;20479;-69
2024/03/15 06:15:52;;;;;;;4.20;2.87;;;13.70;99.90;;;;;;5008868;28;20311;-70
2024/03/15 06:18:18;;;;;;;7.50;3.37;;;13.70;99.90;;;;;;5007240;28;20447;-70
2024/03/15 06:20:44;;;;;;;4.67;3.03;;;13.80;99.90;;;;;;5007352;28;21283;-70
2024/03/15 06:23:10;;;;;;;4.83;2.73;;;13.70;99.90;;;;;;5007847;28;20839;-70
2024/03/15 06:25:36;;;;;;;3.27;2.80;;;13.70;99.90;;;;;;5006561;28;20204;-70
2024/03/15 06:28:06;;;;;;;4.27;3.03;;;13.70;99.90;;;;;;5004490;28;20420;-70
2024/03/15 06:30:43;;;;;;;4.60;2.90;;;13.80;99.90;;;;;;5014042;28;20884;-70
2024/03/15 06:33:10;;;;;;;5.60;2.83;;;13.80;99.90;;;;;;5004527;28;20455;-70
2024/03/15 06:35:36;;;;;;;4.27;3.27;;;13.90;99.90;;;;;;5001964;28;20439;-70
2024/03/15 06:38:10;;;;;;;6.23;3.10;;;13.90;99.90;;;;;;5007864;28;20408;-70
2024/03/15 06:40:55;;;;;;;4.70;2.87;;;14.00;99.90;;;;;;5004184;28;20177;-69
2024/03/15 06:43:41;;;;;;;6.83;2.90;;;14.00;99.90;;;;;;5009759;28;20412;-70
2024/03/15 06:46:12;;;;;;;8.83;3.30;;;13.90;99.90;;;;;;5010323;28;20457;-69
2024/03/15 06:48:47;;;;;;;3.50;3.00;;;14.00;99.90;;;;;;5014220;28;20407;-70
2024/03/15 06:53:57;;;;;;;3.70;2.87;;;14.00;99.90;;;;;;5003650;28;20525;-70
2024/03/15 06:56:23;;;;;;;4.47;2.90;;;14.10;99.90;;;;;;5007431;28;20427;-69
2024/03/15 06:58:48;;;;;;;3.00;2.70;;;14.10;99.90;;;;;;5006348;28;20188;-69
2024/03/15 07:01:14;;;;;;;4.63;3.30;;;14.20;99.90;;;;;;5009725;28;20439;-69
2024/03/15 07:03:39;;;;;;;3.30;3.00;;;14.20;99.90;;;;;;5006458;28;20547;-70
2024/03/15 07:06:05;;;;;;;3.73;2.90;;;14.20;99.90;;;;;;5008409;28;20235;-70
2024/03/15 07:08:32;;;;;;;3.27;2.67;;;14.20;99.90;;;;;;5005225;28;20257;-70
2024/03/15 07:10:57;;;;;;;3.90;3.50;;;14.30;99.90;;;;;;5007613;28;20185;-70
2024/03/15 07:13:23;;;;;;;3.57;2.70;;;14.40;99.90;;;;;;5013898;28;20536;-70
2024/03/15 07:15:49;;;;;;;5.13;3.47;;;14.50;99.90;;;;;;5002986;28;20262;-70
2024/03/15 07:18:15;;;;;;;5.00;2.70;;;14.50;99.90;;;;;;5012397;28;20185;-70
2024/03/15 07:20:41;;;;;;;3.00;2.67;;;14.60;99.90;;;;;;5014500;28;20466;-70
2024/03/15 07:23:07;;;;;;;9.77;3.10;;;14.70;99.90;;;;;;5008150;28;20181;-70
2024/03/15 07:25:35;;;;;;;3.43;2.70;;;14.80;99.90;;;;;;5012446;28;20504;-70
2024/03/15 07:28:01;;;;;;;3.90;2.83;;;14.80;99.90;;;;;;5010119;28;20233;-70
2024/03/15 07:30:28;;;;;;;5.33;3.50;;;14.90;99.90;;;;;;5011117;28;20430;-70
2024/03/15 07:32:53;;;;;;;4.70;3.50;;;15.00;99.90;;;;;;5010131;28;21614;-70
2024/03/15 07:35:19;;;;;;;6.30;3.10;;;15.10;99.90;;;;;;5011829;28;20450;-69
2024/03/15 07:37:47;;;;;;;4.90;3.00;;;15.20;99.90;;;;;;5014062;28;20408;-70
2024/03/15 07:40:13;;;;;;;4.60;3.13;;;15.30;99.90;;;;;;5015697;28;20455;-70
2024/03/15 07:42:39;;;;;;;4.53;3.73;;;15.50;99.90;;;;;;5015658;28;20481;-70
2024/03/15 07:45:05;;;;;;;4.70;2.73;;;15.50;99.90;;;;;;5013764;28;20447;-70
2024/03/15 07:47:31;;;;;;;4.33;3.30;;;15.70;99.90;;;;;;5014266;28;20745;-69
2024/03/15 07:49:56;;;;;;;5.83;3.23;;;15.80;99.90;;;;;;5016630;28;20189;-70
2024/03/15 07:52:22;;;;;;;3.47;2.80;;;15.90;99.90;;;;;;5014893;28;20193;-70
2024/03/15 07:54:48;;;;;;;4.07;3.10;;;15.90;99.90;;;;;;5004054;28;20235;-70
2024/03/15 07:57:14;;;;;;;4.30;3.00;;;16.00;99.90;;;;;;5012580;28;20415;-69
2024/03/15 07:59:40;;;;;;;5.07;2.87;;;16.00;99.90;;;;;;5009635;28;20193;-70
2024/03/15 08:02:06;;;;;;;5.63;3.20;;;16.10;99.90;;;;;;5011616;28;20193;-69
2024/03/15 08:04:34;;;;;;;4.60;3.53;;;16.30;99.90;;;;;;5014576;28;20446;-70
2024/03/15 08:06:59;;;;;;;4.03;3.40;;;16.30;99.90;;;;;;5009567;28;20805;-69
2024/03/15 08:09:25;;;;;;;6.17;3.37;;;16.40;99.90;;;;;;5008621;28;20435;-69
2024/03/15 08:11:52;;;;;;;4.90;2.90;;;16.30;99.90;;;;;;4999650;28;20227;-69
2024/03/15 08:14:18;;;;;;;5.47;3.37;;;16.40;99.90;;;;;;5004902;28;20581;-69
2024/03/15 08:16:45;;;;;;;4.60;2.80;;;16.40;99.90;;;;;;5016958;28;20544;-69
2024/03/15 08:19:11;;;;;;;4.87;2.97;;;16.40;99.90;;;;;;5009087;28;20188;-69
2024/03/15 08:21:37;;;;;;;7.23;4.10;;;16.50;99.90;;;;;;5010161;28;20443;-70
2024/03/15 08:24:09;;;;;;;3.97;2.90;;;16.60;99.90;;;;;;5014070;28;20475;-70
2024/03/15 08:26:39;;;;;;;4.10;2.53;;;16.40;99.90;;;;;;5012315;28;20438;-70
2024/03/15 08:29:05;;;;;;;4.90;3.07;;;16.30;99.90;;;;;;5014656;28;20423;-69
2024/03/15 08:31:30;;;;;;;4.97;3.37;;;16.30;99.90;;;;;;5011895;28;20443;-71
2024/03/15 08:33:59;;;;;;;4.53;3.10;;;16.30;99.90;;;;;;5002229;28;20853;-70
2024/03/15 08:36:25;;;;;;;4.87;3.20;;;16.40;99.90;;;;;;5015446;28;20197;-70
2024/03/15 08:38:51;;;;;;;5.10;3.70;;;16.30;99.90;;;;;;5004153;28;20651;-71
2024/03/15 08:41:17;;;;;;;4.13;3.20;;;16.30;99.90;;;;;;5017469;28;20597;-71
2024/03/15 08:43:42;;;;;;;4.43;3.10;;;16.50;99.90;;;;;;5014016;28;20670;-69
2024/03/15 08:46:09;;;;;;;4.87;2.93;;;16.50;99.90;;;;;;5012183;28;20436;-70
2024/03/15 08:48:34;;;;;;;5.07;3.20;;;16.50;99.90;;;;;;5008720;28;20923;-69
2024/03/15 08:51:03;;;;;;;5.47;3.40;;;16.60;99.90;;;;;;5013675;28;20459;-71
2024/03/15 08:53:29;;;;;;;3.60;2.90;;;16.70;99.90;;;;;;5013031;28;20227;-70
2024/03/15 08:55:58;;;;;;;6.30;3.23;;;16.70;99.90;;;;;;5015172;28;20422;-70
2024/03/15 08:58:26;;;;;;;6.20;3.47;;;16.80;99.90;;;;;;5011189;28;20176;-71
2024/03/15 09:00:55;;;;;;;7.70;4.20;;;16.80;99.90;;;;;;5015081;28;20445;-70
2024/03/15 09:03:21;;;;;;;8.00;3.60;;;16.80;99.90;;;;;;5012903;28;20428;-70
2024/03/15 09:05:47;;;;;;;6.73;3.67;;;16.80;99.90;;;;;;5017251;28;20988;-70
2024/03/15 09:08:13;;;;;;;3.93;3.53;;;16.90;99.90;;;;;;5017353;28;20275;-70
2024/03/15 09:10:40;;;;;;;4.50;3.00;;;16.80;99.90;;;;;;5018865;28;20263;-70
2024/03/15 09:13:06;;;;;;;8.17;3.83;;;16.80;99.90;;;;;;5011361;28;20446;-70
2024/03/15 09:15:33;;;;;;;5.07;3.37;;;16.70;99.90;;;;;;5012722;28;20913;-70
2024/03/15 09:18:00;;;;;;;5.00;3.10;;;16.70;99.90;;;;;;5002423;28;20983;-70
2024/03/15 09:20:39;;;;;;;4.60;3.07;;;16.70;99.90;;;;;;5018465;28;20534;-70
2024/03/15 09:23:04;;;;;;;4.03;2.90;;;16.60;99.90;;;;;;5012217;28;20427;-70
2024/03/15 09:25:30;;;;;;;4.80;3.20;;;16.50;99.90;;;;;;5018831;28;20463;-70
2024/03/15 09:27:57;;;;;;;4.33;3.00;;;16.50;99.90;;;;;;5014133;28;20188;-70
2024/03/15 09:30:27;;;;;;;4.30;2.80;;;16.50;99.90;;;;;;5014120;28;20500;-69
2024/03/15 09:32:53;;;;;;;5.10;4.60;;;16.30;99.90;;;;;;5014444;28;20509;-70
2024/03/15 09:35:19;;;;;;;6.60;3.30;;;16.30;99.90;;;;;;5015859;28;20453;-70
2024/03/15 09:37:51;;;;;;;5.90;3.53;;;16.30;99.90;;;;;;5016701;28;20426;-70
2024/03/15 09:40:18;;;;;;;5.97;3.47;;;16.20;99.90;;;;;;5014344;28;20431;-70
2024/03/15 09:42:46;;;;;;;5.67;3.10;;;16.10;99.90;;;;;;5019486;28;20422;-70
2024/03/15 09:45:12;;;;;;;4.50;3.47;;;16.20;99.90;;;;;;5011326;28;20462;-71
2024/03/15 09:47:40;;;;;;;8.33;3.77;;;16.30;99.90;;;;;;5020748;28;20510;-70
2024/03/15 09:50:16;;;;;;;5.40;3.10;;;16.30;99.90;;;;;;5008809;28;20446;-71
2024/03/15 09:52:46;;;;;;;3.57;3.10;;;16.30;99.90;;;;;;5014166;28;20434;-71
2024/03/15 09:55:16;;;;;;;4.70;3.73;;;16.30;99.90;;;;;;5011617;28;20477;-71
2024/03/15 09:57:48;;;;;;;5.13;3.30;;;16.30;99.90;;;;;;5012193;28;20454;-71
2024/03/15 10:00:22;;;;;;;5.90;3.40;;;16.20;99.90;;;;;;5015212;28;20420;-72
2024/03/15 10:02:49;;;;;;;4.60;3.47;;;16.20;99.90;;;;;;5013965;28;20914;-71
2024/03/15 10:05:16;;;;;;;4.00;3.30;;;16.20;99.90;;;;;;5009557;28;20432;-71
2024/03/15 10:07:42;;;;;;;4.10;3.60;;;16.30;99.90;;;;;;5017053;28;20415;-73
2024/03/15 10:10:11;;;;;;;4.80;3.47;;;16.20;99.90;;;;;;5004559;28;20598;-71
2024/03/15 10:12:40;;;;;;;7.60;4.10;;;16.10;99.90;;;;;;5016735;28;20482;-72
2024/03/15 10:15:11;;;;;;;4.53;3.63;;;16.00;99.90;;;;;;5010975;28;20474;-70
2024/03/15 10:17:39;;;;;;;5.23;3.60;;;15.80;99.90;;;;;;5007109;28;20515;-72
2024/03/15 10:20:18;;;;;;;7.27;3.67;;;15.80;99.90;;;;;;5011424;28;20783;-70
2024/03/15 10:22:45;;;;;;;9.67;3.57;;;15.80;99.90;;;;;;5009987;28;20422;-71
2024/03/15 10:25:18;;;;;;;6.80;4.40;;;15.80;99.90;;;;;;5023516;28;20506;-71
2024/03/15 10:27:49;;;;;;;6.10;3.70;;;15.80;99.90;;;;;;5003371;28;20442;-71
2024/03/15 10:30:25;;;;;;;6.13;3.70;;;15.80;99.90;;;;;;5021654;28;20442;-71
2024/03/15 10:32:53;;;;;;;5.80;3.60;;;15.80;99.90;;;;;;5007605;28;20945;-71
2024/03/15 10:35:19;;;;;;;4.60;3.50;;;16.00;99.90;;;;;;5008923;28;20949;-71
2024/03/15 10:37:46;;;;;;;5.10;3.33;;;16.00;99.90;;;;;;5012167;28;21397;-71
2024/03/15 10:40:17;;;;;;;7.80;3.77;;;16.00;99.90;;;;;;5006659;28;20439;-72
2024/03/15 10:42:48;;;;;;;4.77;3.07;;;16.00;99.90;;;;;;5006884;28;20466;-73
2024/03/15 10:45:16;;;;;;;6.33;3.50;;;15.90;99.90;;;;;;5013434;28;20558;-71
2024/03/15 10:47:43;;;;;;;4.63;3.70;;;15.90;99.90;;;;;;5008124;28;20447;-72
2024/03/15 10:50:12;;;;;;;16.90;3.70;;;16.00;99.90;;;;;;5014714;28;20431;-72
2024/03/15 10:52:41;;;;;;;5.30;3.50;;;15.90;99.90;;;;;;5014755;28;20433;-71
2024/03/15 10:55:14;;;;;;;5.10;3.30;;;15.90;99.90;;;;;;5010227;28;20471;-71
2024/03/15 10:57:40;;;;;;;4.53;3.40;;;15.80;99.90;;;;;;5007657;28;20505;-72
2024/03/15 11:00:17;;;;;;;5.10;3.50;;;15.90;99.90;;;;;;5007756;28;20507;-70
2024/03/15 11:02:48;;;;;;;4.30;3.50;;;15.90;99.90;;;;;;5012948;28;20274;-71
2024/03/15 11:05:22;;;;;;;7.00;4.70;;;16.00;99.90;;;;;;5014560;28;20457;-71
2024/03/15 11:08:00;;;;;;;8.77;3.97;;;16.30;99.90;;;;;;5010419;28;20415;-72
2024/03/15 11:10:27;;;;;;;3.70;3.20;;;16.50;99.90;;;;;;5013995;28;20518;-71
2024/03/15 11:12:53;;;;;;;3.23;2.63;;;16.60;99.90;;;;;;5011481;28;20443;-71
2024/03/15 11:15:21;;;;;;;3.47;2.80;;;16.70;99.90;;;;;;5017561;28;20490;-71
2024/03/15 11:18:03;;;;;;;4.70;3.50;;;16.60;99.90;;;;;;5019667;28;20463;-70
2024/03/15 11:20:45;;;;;;;5.07;3.00;;;16.50;99.90;;;;;;5020476;28;20513;-71
2024/03/15 11:23:18;;;;;;;3.83;3.00;;;16.50;99.90;;;;;;5018722;28;20715;-69
2024/03/15 11:26:07;;;;;;;4.13;2.90;;;16.50;99.90;;;;;;5017681;28;20427;-70
2024/03/15 11:28:35;;;;;;;5.20;3.27;;;16.30;99.90;;;;;;5016367;28;20442;-70
2024/03/15 11:31:01;;;;;;;5.33;3.30;;;16.20;99.90;;;;;;5013188;28;20426;-71
2024/03/15 11:33:28;;;;;;;6.00;4.07;;;16.10;99.90;;;;;;5012088;28;20466;-70
2024/03/15 11:35:56;;;;;;;9.70;3.10;;;16.00;99.90;;;;;;5011796;28;20445;-70
2024/03/15 11:38:22;;;;;;;5.40;3.50;;;16.00;99.90;;;;;;5019763;28;20411;-70
2024/03/15 11:40:51;;;;;;;3.67;2.90;;;15.90;99.90;;;;;;5015916;28;20439;-71
2024/03/15 11:43:16;;;;;;;4.50;3.40;;;16.00;99.90;;;;;;5011160;28;20810;-68
2024/03/15 11:45:43;;;;;;;7.60;5.50;;;16.00;99.90;;;;;;5011780;28;20458;-69
2024/03/15 11:48:19;;;;;;;5.43;3.40;;;16.00;99.90;;;;;;5009862;28;20299;-70
2024/03/15 11:50:54;;;;;;;4.37;3.23;;;15.90;99.90;;;;;;5023434;28;20444;-71
2024/03/15 11:53:22;;;;;;;5.20;3.23;;;15.90;99.90;;;;;;5011009;28;20466;-70
2024/03/15 11:55:49;;;;;;;5.73;3.90;;;15.80;99.90;;;;;;5017686;28;20528;-69
2024/03/15 11:58:16;;;;;;;6.17;4.03;;;15.80;99.90;;;;;;5009796;28;20440;-69
2024/03/15 12:00:45;;;;;;;4.77;3.47;;;15.70;99.90;;;;;;5015365;28;20444;-73
2024/03/15 12:03:12;;;;;;;5.50;3.10;;;15.70;99.90;;;;;;5019235;28;20481;-69
2024/03/15 12:05:40;;;;;;;8.17;3.70;;;15.60;99.90;;;;;;5011506;28;20950;-70
2024/03/15 12:08:13;;;;;;;6.77;3.80;;;15.50;99.90;;;;;;5019054;28;20413;-70
2024/03/15 12:10:41;;;;;;;5.87;3.57;;;15.40;99.90;;;;;;5015355;28;21241;-70
2024/03/15 12:13:20;;;;;;;4.90;3.20;;;15.30;99.90;;;;;;5015848;28;20446;-70
2024/03/15 12:15:48;;;;;;;4.10;2.97;;;15.30;99.90;;;;;;5012577;28;20530;-69
2024/03/15 12:18:24;;;;;;;4.67;2.90;;;15.20;99.90;;;;;;5006492;28;20431;-70
2024/03/15 12:20:51;;;;;;;4.30;3.23;;;15.10;99.90;;;;;;5019693;28;20433;-70
2024/03/15 12:23:18;;;;;;;4.67;2.97;;;15.10;99.90;;;;;;5016522;28;20412;-70
2024/03/15 12:25:51;;;;;;;6.40;4.90;;;15.00;99.90;;;;;;5022912;28;20462;-69
2024/03/15 12:28:21;;;;;;;4.20;2.83;;;15.00;99.90;;;;;;5015520;28;20956;-69
2024/03/15 12:30:56;;;;;;;4.93;2.73;;;15.00;99.90;;;;;;5016215;28;20473;-70
2024/03/15 12:33:22;;;;;;;3.50;2.63;;;15.10;99.90;;;;;;5016806;28;20454;-69
2024/03/15 12:35:49;;;;;;;7.37;4.77;;;15.10;99.90;;;;;;5020440;28;20438;-70
2024/03/15 12:38:20;;;;;;;4.47;2.73;;;15.20;99.90;;;;;;5014681;28;20186;-70
2024/03/15 12:40:46;;;;;;;3.00;2.47;;;15.20;99.90;;;;;;5021596;28;20486;-70
2024/03/15 12:43:12;;;;;;;7.50;2.73;;;15.30;99.90;;;;;;5015742;28;20965;-73
2024/03/15 12:45:41;;;;;;;4.03;2.77;;;15.30;99.90;;;;;;5024639;28;20191;-71
2024/03/15 12:48:08;;;;;;;6.40;3.00;;;15.40;99.90;;;;;;5016519;28;20210;-71
2024/03/15 12:50:34;;;;;;;5.07;2.80;;;15.50;99.90;;;;;;5021167;28;20435;-71